createdAt,value
2023-04-13T00:01:22.076Z,11.21
2023-04-13T00:03:49.543Z,10.64
2023-04-13T00:06:22.349Z,10.13
2023-04-13T00:08:50.303Z,10.11
2023-04-13T00:11:18.750Z,11.76
2023-04-13T00:13:47.922Z,13.26
2023-04-13T00:16:16.142Z,13.82
2023-04-13T00:18:44.547Z,12.90
2023-04-13T00:21:12.921Z,11.85
2023-04-13T00:23:40.265Z,11.05
2023-04-13T00:26:08.153Z,10.47
2023-04-13T00:28:38.623Z,10.46
2023-04-13T00:31:06.363Z,11.96
2023-04-13T00:33:34.085Z,13.30
2023-04-13T00:36:01.245Z,14.09
2023-04-13T00:38:30.398Z,13.61
2023-04-13T00:40:57.069Z,12.45
2023-04-13T00:43:25.923Z,11.46
2023-04-13T00:45:52.491Z,10.69
2023-04-13T00:48:21.222Z,10.08
2023-04-13T00:50:47.828Z,10.06
2023-04-13T00:53:16.330Z,11.63
2023-04-13T00:55:44.590Z,13.15
2023-04-13T00:58:12.875Z,13.96
2023-04-13T01:00:42.568Z,14.18
2023-04-13T01:03:11.007Z,13.10
2023-04-13T01:06:25.315Z,11.96
2023-04-13T01:09:15.056Z,10.88
2023-04-13T01:12:10.803Z,10.89
2023-04-13T01:14:47.094Z,12.61
2023-04-13T01:17:24.626Z,13.77
2023-04-13T01:20:13.676Z,14.05
2023-04-13T01:22:58.129Z,12.81
2023-04-13T01:25:57.864Z,11.52
2023-04-13T01:28:28.373Z,10.52
2023-04-13T01:30:59.605Z,9.93
2023-04-13T01:33:29.711Z,10.14
2023-04-13T01:36:01.818Z,12.29
2023-04-13T01:38:29.325Z,13.47
2023-04-13T01:40:59.182Z,12.99
2023-04-13T01:43:30.869Z,11.88
2023-04-13T01:46:06.279Z,10.96
2023-04-13T01:48:54.885Z,10.80
2023-04-13T01:51:28.813Z,12.57
2023-04-13T01:54:13.530Z,13.61
2023-04-13T01:56:43.130Z,13.61
2023-04-13T01:59:10.715Z,12.43
2023-04-13T02:01:40.519Z,11.35
2023-04-13T02:04:07.471Z,10.78
2023-04-13T02:06:36.533Z,11.92
2023-04-13T02:09:10.563Z,13.16
2023-04-13T02:11:40.066Z,13.79
2023-04-13T02:14:08.684Z,12.88
2023-04-13T02:16:35.158Z,11.75
2023-04-13T02:19:01.765Z,10.83
2023-04-13T02:21:28.541Z,10.54
2023-04-13T02:23:57.295Z,11.86
2023-04-13T02:26:25.502Z,13.00
2023-04-13T02:28:51.985Z,13.47
2023-04-13T02:31:23.125Z,12.54
2023-04-13T02:33:52.300Z,11.38
2023-04-13T02:36:24.627Z,10.54
2023-04-13T02:38:53.954Z,10.66
2023-04-13T02:41:23.374Z,12.21
2023-04-13T02:43:51.507Z,13.43
2023-04-13T02:46:19.318Z,13.41
2023-04-13T02:48:45.842Z,12.27
2023-04-13T02:51:12.521Z,11.19
2023-04-13T02:53:39.306Z,10.38
2023-04-13T02:56:07.071Z,10.26
2023-04-13T02:58:34.893Z,11.70
2023-04-13T03:01:01.876Z,12.98
2023-04-13T03:03:30.180Z,13.84
2023-04-13T03:05:56.917Z,13.26
2023-04-13T03:08:25.646Z,11.96
2023-04-13T03:10:54.198Z,11.16
2023-04-13T03:13:21.529Z,12.13
2023-04-13T03:15:48.951Z,13.20
2023-04-13T03:18:15.649Z,12.94
2023-04-13T03:20:43.544Z,11.79
2023-04-13T03:23:13.026Z,10.79
2023-04-13T03:25:39.763Z,10.68
2023-04-13T03:28:06.206Z,11.81
2023-04-13T03:30:33.823Z,12.80
2023-04-13T03:33:00.364Z,13.09
2023-04-13T03:35:29.555Z,12.03
2023-04-13T03:37:56.405Z,10.99
2023-04-13T03:40:24.226Z,11.55
2023-04-13T03:42:51.565Z,12.68
2023-04-13T03:45:18.520Z,13.54
2023-04-13T03:47:45.429Z,13.80
2023-04-13T03:50:13.384Z,12.69
2023-04-13T03:52:42.930Z,11.48
2023-04-13T03:55:13.940Z,10.63
2023-04-13T03:57:41.796Z,10.40
2023-04-13T04:00:13.325Z,11.68
2023-04-13T04:02:41.772Z,12.74
2023-04-13T04:05:09.756Z,13.60
2023-04-13T04:07:36.397Z,13.78
2023-04-13T04:10:03.362Z,12.76
2023-04-13T04:12:31.817Z,11.59
2023-04-13T04:15:00.382Z,10.70
2023-04-13T04:17:28.565Z,10.45
2023-04-13T04:19:55.331Z,11.86
2023-04-13T04:22:29.337Z,13.15
2023-04-13T04:25:00.535Z,13.42
2023-04-13T04:27:27.701Z,12.43
2023-04-13T04:29:58.531Z,11.39
2023-04-13T04:32:25.253Z,10.58
2023-04-13T04:34:56.041Z,10.38
2023-04-13T04:37:22.914Z,11.77
2023-04-13T04:39:49.532Z,13.04
2023-04-13T04:42:18.305Z,13.73
2023-04-13T04:44:49.400Z,14.23
2023-04-13T04:47:18.763Z,13.88
2023-04-13T04:49:45.403Z,12.48
2023-04-13T04:52:14.212Z,11.25
2023-04-13T04:54:41.978Z,10.86
2023-04-13T04:57:11.602Z,12.02
2023-04-13T04:59:40.151Z,12.97
2023-04-13T05:02:10.796Z,12.85
2023-04-13T05:04:39.653Z,11.71
2023-04-13T05:07:07.000Z,10.75
2023-04-13T05:09:38.280Z,10.88
2023-04-13T05:12:06.154Z,12.26
2023-04-13T05:14:33.972Z,13.26
2023-04-13T05:17:02.483Z,13.85
2023-04-13T05:19:29.956Z,13.95
2023-04-13T05:22:04.850Z,12.90
2023-04-13T05:24:32.980Z,11.74
2023-04-13T05:27:05.499Z,11.00
2023-04-13T05:29:34.783Z,11.94
2023-04-13T05:32:03.299Z,13.13
2023-04-13T05:34:33.233Z,13.80
2023-04-13T05:36:59.932Z,13.92
2023-04-13T05:39:26.949Z,12.82
2023-04-13T05:41:56.387Z,11.66
2023-04-13T05:44:22.853Z,10.76
2023-04-13T05:46:51.213Z,11.04
2023-04-13T05:49:18.966Z,12.40
2023-04-13T05:51:47.231Z,13.41
2023-04-13T05:54:16.872Z,14.05
2023-04-13T05:56:44.758Z,14.16
2023-04-13T05:59:15.789Z,12.99
2023-04-13T06:01:43.262Z,11.81
2023-04-13T06:04:13.692Z,10.89
2023-04-13T06:06:44.659Z,10.89
2023-04-13T06:09:11.286Z,12.27
2023-04-13T06:11:38.869Z,13.36
2023-04-13T06:14:05.527Z,14.10
2023-04-13T06:16:34.283Z,14.26
2023-04-13T06:19:01.320Z,13.10
2023-04-13T06:21:29.510Z,11.92
2023-04-13T06:24:00.493Z,10.99
2023-04-13T06:26:30.257Z,11.34
2023-04-13T06:28:59.053Z,12.67
2023-04-13T06:31:27.298Z,13.55
2023-04-13T06:33:54.870Z,13.67
2023-04-13T06:36:21.855Z,12.50
2023-04-13T06:38:48.934Z,11.24
2023-04-13T06:41:17.611Z,10.94
2023-04-13T06:43:45.760Z,11.90
2023-04-13T06:46:14.305Z,12.24
2023-04-13T06:48:42.389Z,12.93
2023-04-13T06:51:09.227Z,13.06
2023-04-13T06:53:35.877Z,11.89
2023-04-13T06:56:03.344Z,11.09
2023-04-13T06:58:30.849Z,12.02
2023-04-13T07:01:03.728Z,12.99
2023-04-13T07:03:31.413Z,13.62
2023-04-13T07:05:59.325Z,12.78
2023-04-13T07:08:26.531Z,11.47
2023-04-13T07:10:57.305Z,11.08
2023-04-13T07:13:26.432Z,12.17
2023-04-13T07:15:54.990Z,13.04
2023-04-13T07:18:23.971Z,13.11
2023-04-13T07:20:51.156Z,12.02
2023-04-13T07:23:19.325Z,11.29
2023-04-13T07:25:47.010Z,12.21
2023-04-13T07:28:16.108Z,13.08
2023-04-13T07:30:45.381Z,12.88
2023-04-13T07:33:15.563Z,11.81
2023-04-13T07:35:42.366Z,11.21
2023-04-13T07:38:11.839Z,12.08
2023-04-13T07:40:39.608Z,12.99
2023-04-13T07:43:09.069Z,13.37
2023-04-13T07:45:35.864Z,12.55
2023-04-13T07:48:05.169Z,11.51
2023-04-13T07:50:32.212Z,10.71
2023-04-13T07:53:00.501Z,11.12
2023-04-13T07:55:27.415Z,12.41
2023-04-13T07:57:55.010Z,13.29
2023-04-13T08:00:22.507Z,13.46
2023-04-13T08:02:49.263Z,12.51
2023-04-13T08:05:16.217Z,11.39
2023-04-13T08:07:47.680Z,11.22
2023-04-13T08:10:19.037Z,12.45
2023-04-13T08:12:46.014Z,13.54
2023-04-13T08:15:12.614Z,13.56
2023-04-13T08:17:39.877Z,12.59
2023-04-13T08:20:10.450Z,11.49
2023-04-13T08:22:38.672Z,10.71
2023-04-13T08:25:05.854Z,10.84
2023-04-13T08:27:32.347Z,12.32
2023-04-13T08:30:01.221Z,13.42
2023-04-13T08:32:30.163Z,13.44
2023-04-13T08:35:06.268Z,12.30
2023-04-13T08:37:36.355Z,11.26
2023-04-13T08:40:07.630Z,11.23
2023-04-13T08:42:34.387Z,12.61
2023-04-13T08:45:05.409Z,13.57
2023-04-13T08:47:32.429Z,13.91
2023-04-13T08:50:01.932Z,13.03
2023-04-13T08:52:31.388Z,11.98
2023-04-13T08:55:02.776Z,11.16
2023-04-13T08:57:30.924Z,10.90
2023-04-13T08:59:59.074Z,12.10
2023-04-13T09:02:36.144Z,13.18
2023-04-13T09:05:15.544Z,13.44
2023-04-13T09:07:53.560Z,12.31
2023-04-13T09:10:20.862Z,11.21
2023-04-13T09:12:47.867Z,10.82
2023-04-13T09:15:16.434Z,11.84
2023-04-13T09:17:45.795Z,12.83
2023-04-13T09:20:17.781Z,13.53
2023-04-13T09:22:44.421Z,13.62
2023-04-13T09:25:27.783Z,12.62
2023-04-13T09:27:56.401Z,11.47
2023-04-13T09:30:26.604Z,11.45
2023-04-13T09:33:07.148Z,12.55
2023-04-13T09:35:36.224Z,13.27
2023-04-13T09:38:04.938Z,12.40
2023-04-13T09:40:33.187Z,11.86
2023-04-13T09:43:08.873Z,12.82
2023-04-13T09:45:46.925Z,13.43
2023-04-13T09:48:22.926Z,12.67
2023-04-13T09:51:02.616Z,11.65
2023-04-13T09:53:46.554Z,11.54
2023-04-13T09:56:13.919Z,12.82
2023-04-13T09:58:52.614Z,13.61
2023-04-13T10:01:24.289Z,13.35
2023-04-13T10:03:51.177Z,12.26
2023-04-13T10:06:19.702Z,11.68
2023-04-13T10:08:47.222Z,12.58
2023-04-13T10:11:14.647Z,13.53
2023-04-13T10:13:54.594Z,13.51
2023-04-13T10:16:41.844Z,12.45
2023-04-13T10:19:16.226Z,11.81
2023-04-13T10:21:46.294Z,12.86
2023-04-13T10:24:14.127Z,13.61
2023-04-13T10:26:46.938Z,12.99
2023-04-13T10:29:28.422Z,11.96
2023-04-13T10:32:02.495Z,11.82
2023-04-13T10:34:33.744Z,12.86
2023-04-13T10:37:08.515Z,13.64
2023-04-13T10:39:37.066Z,13.24
2023-04-13T10:42:09.447Z,12.11
2023-04-13T10:44:52.542Z,11.99
2023-04-13T10:47:22.014Z,13.31
2023-04-13T10:49:51.872Z,13.83
2023-04-13T10:52:18.429Z,12.81
2023-04-13T10:54:45.725Z,11.78
2023-04-13T10:57:13.000Z,12.27
2023-04-13T10:59:56.204Z,13.34
2023-04-13T11:02:30.344Z,13.51
2023-04-13T11:05:00.353Z,12.42
2023-04-13T11:07:27.929Z,11.69
2023-04-13T11:12:29.373Z,13.62
2023-04-13T11:14:55.743Z,14.36
2023-04-13T11:17:22.584Z,14.40
2023-04-13T11:19:54.329Z,13.28
2023-04-13T11:22:24.334Z,12.15
2023-04-13T11:24:52.340Z,11.32
2023-04-13T11:27:28.371Z,11.11
2023-04-13T11:30:05.891Z,12.47
2023-04-13T11:32:36.423Z,13.39
2023-04-13T11:35:07.608Z,14.02
2023-04-13T11:37:46.524Z,13.93
2023-04-13T11:40:25.028Z,12.80
2023-04-13T11:42:56.052Z,11.74
2023-04-13T11:45:30.386Z,11.41
2023-04-13T11:47:59.341Z,12.75
2023-04-13T11:50:26.703Z,13.86
2023-04-13T11:52:56.881Z,14.15
2023-04-13T11:55:25.729Z,13.21
2023-04-13T11:57:53.528Z,12.17
2023-04-13T12:00:26.146Z,11.54
2023-04-13T12:03:02.657Z,12.32
2023-04-13T12:05:33.165Z,13.49
2023-04-13T12:08:04.604Z,13.83
2023-04-13T12:10:41.303Z,12.95
2023-04-13T12:16:05.133Z,11.57
2023-04-13T12:18:43.315Z,12.89
2023-04-13T12:21:20.419Z,13.97
2023-04-13T12:24:00.327Z,14.05
2023-04-13T12:29:06.602Z,11.75
2023-04-13T12:31:38.473Z,11.62
2023-04-13T12:34:07.585Z,13.03
2023-04-13T12:36:39.325Z,14.20
2023-04-13T12:39:08.830Z,14.97
2023-04-13T12:41:35.337Z,15.13
2023-04-13T12:44:05.699Z,14.01
2023-04-13T12:46:32.375Z,12.90
2023-04-13T12:48:59.074Z,12.09
2023-04-13T12:51:27.877Z,11.86
2023-04-13T12:53:58.633Z,13.40
2023-04-13T12:56:26.943Z,14.50
2023-04-13T12:58:53.943Z,15.14
2023-04-13T13:01:22.835Z,15.24
2023-04-13T13:03:54.258Z,14.08
2023-04-13T13:06:24.566Z,12.84
2023-04-13T13:08:52.852Z,11.97
2023-04-13T13:11:20.501Z,11.29
2023-04-13T13:13:54.828Z,11.17
2023-04-13T13:16:21.734Z,12.58
2023-04-13T13:18:51.459Z,13.79
2023-04-13T13:21:19.848Z,14.60
2023-04-13T13:23:46.516Z,14.78
2023-04-13T13:28:48.146Z,12.58
2023-04-13T13:31:15.756Z,11.77
2023-04-13T13:33:43.036Z,11.51
2023-04-13T13:36:13.270Z,12.73
2023-04-13T13:38:40.039Z,14.00
2023-04-13T13:41:14.048Z,14.86
2023-04-13T13:43:40.589Z,15.03
2023-04-13T13:46:10.496Z,13.93
2023-04-13T13:48:38.808Z,12.83
2023-04-13T13:51:46.122Z,12.29
2023-04-13T13:53:53.280Z,13.52
2023-04-13T13:56:21.536Z,14.65
2023-04-13T13:58:48.731Z,14.98
2023-04-13T14:01:17.735Z,13.91
2023-04-13T14:03:46.282Z,12.68
2023-04-13T14:06:13.360Z,12.12
2023-04-13T14:08:45.153Z,13.19
2023-04-13T14:11:12.958Z,14.37
2023-04-13T14:13:43.216Z,15.12
2023-04-13T14:16:10.665Z,15.22
2023-04-13T14:18:38.110Z,14.11
2023-04-13T14:21:07.808Z,12.95
2023-04-13T14:23:36.853Z,12.08
2023-04-13T14:26:04.112Z,11.43
2023-04-13T14:28:32.039Z,11.37
2023-04-13T14:30:59.861Z,12.78
2023-04-13T14:33:27.468Z,14.09
2023-04-13T14:35:54.219Z,14.94
2023-04-13T14:38:23.078Z,15.18
2023-04-13T14:40:50.135Z,14.12
2023-04-13T14:43:21.480Z,13.01
2023-04-13T14:45:53.920Z,12.15
2023-04-13T14:48:21.572Z,11.89
2023-04-13T14:50:49.341Z,13.19
2023-04-13T14:53:22.106Z,14.42
2023-04-13T14:55:51.412Z,15.23
2023-04-13T14:58:21.002Z,15.39
2023-04-13T15:00:47.540Z,14.41
2023-04-13T15:03:15.678Z,13.42
2023-04-13T15:05:52.919Z,12.70
2023-04-13T15:08:22.748Z,12.56
2023-04-13T15:10:49.470Z,13.91
2023-04-13T15:13:16.933Z,15.09
2023-04-13T15:15:47.448Z,15.83
2023-04-13T15:18:18.953Z,15.92
2023-04-13T15:20:46.495Z,14.78
2023-04-13T15:23:17.943Z,13.68
2023-04-13T15:25:46.695Z,12.83
2023-04-13T15:28:13.993Z,12.21
2023-04-13T15:30:42.990Z,12.08
2023-04-13T15:33:10.354Z,13.36
2023-04-13T15:35:38.469Z,14.55
2023-04-13T15:38:08.894Z,15.36
2023-04-13T15:40:37.728Z,15.57
2023-04-13T15:43:06.551Z,14.57
2023-04-13T15:45:36.946Z,13.52
2023-04-13T15:48:06.668Z,12.79
2023-04-13T15:50:33.942Z,12.65
2023-04-13T15:53:01.485Z,13.95
2023-04-13T15:55:34.435Z,15.21
2023-04-13T15:58:03.088Z,15.64
2023-04-13T16:00:32.622Z,14.76
2023-04-13T16:03:04.438Z,13.71
2023-04-13T16:05:41.030Z,12.88
2023-04-13T16:08:11.731Z,12.31
2023-04-13T16:10:38.198Z,12.25
2023-04-13T16:13:07.780Z,13.63
2023-04-13T16:15:36.359Z,15.03
2023-04-13T16:18:02.932Z,15.60
2023-04-13T16:20:29.884Z,14.75
2023-04-13T16:23:00.162Z,13.80
2023-04-13T16:25:31.013Z,13.04
2023-04-13T16:28:01.071Z,12.81
2023-04-13T16:30:27.538Z,13.99
2023-04-13T16:32:56.040Z,15.16
2023-04-13T16:35:22.798Z,15.34
2023-04-13T16:37:50.022Z,14.32
2023-04-13T16:40:16.679Z,13.33
2023-04-13T16:42:46.360Z,12.60
2023-04-13T16:45:15.262Z,12.38
2023-04-13T16:47:42.513Z,13.54
2023-04-13T16:50:12.153Z,14.67
2023-04-13T16:52:39.332Z,15.37
2023-04-13T16:55:07.285Z,15.43
2023-04-13T16:57:38.720Z,14.41
2023-04-13T17:00:08.831Z,13.37
2023-04-13T17:02:41.811Z,12.56
2023-04-13T17:05:11.705Z,11.92
2023-04-13T17:07:40.817Z,11.80
2023-04-13T17:10:09.512Z,13.15
2023-04-13T17:12:38.506Z,14.42
2023-04-13T17:15:07.154Z,15.29
2023-04-13T17:17:38.763Z,14.85
2023-04-13T17:20:09.643Z,13.66
2023-04-13T17:22:39.049Z,12.68
2023-04-13T17:25:09.337Z,11.95
2023-04-13T17:27:36.210Z,11.67
2023-04-13T17:30:05.014Z,12.87
2023-04-13T17:32:34.945Z,14.16
2023-04-13T17:35:02.940Z,14.96
2023-04-13T17:37:30.518Z,15.00
2023-04-13T17:39:57.346Z,13.76
2023-04-13T17:42:24.513Z,12.54
2023-04-13T17:44:52.068Z,11.54
2023-04-13T17:47:23.952Z,11.14
2023-04-13T17:49:53.513Z,12.27
2023-04-13T17:52:20.385Z,13.46
2023-04-13T17:54:47.826Z,14.24
2023-04-13T17:57:14.875Z,14.81
2023-04-13T17:59:41.655Z,14.38
2023-04-13T18:02:11.938Z,13.11
2023-04-13T18:04:39.648Z,12.09
2023-04-13T18:07:07.195Z,11.33
2023-04-13T18:09:34.206Z,11.09
2023-04-13T18:12:01.879Z,12.36
2023-04-13T18:14:30.511Z,13.70
2023-04-13T18:16:59.261Z,14.50
2023-04-13T18:19:26.682Z,14.47
2023-04-13T18:21:53.641Z,13.50
2023-04-13T18:24:21.336Z,12.45
2023-04-13T18:26:55.046Z,12.00
2023-04-13T18:29:22.218Z,13.15
2023-04-13T18:31:50.687Z,14.25
2023-04-13T18:34:20.744Z,14.67
2023-04-13T18:36:47.189Z,13.77
2023-04-13T18:39:16.602Z,12.76
2023-04-13T18:41:43.099Z,11.99
2023-04-13T18:44:09.526Z,11.42
2023-04-13T18:46:36.370Z,11.28
2023-04-13T18:49:03.589Z,12.56
2023-04-13T18:51:30.488Z,13.85
2023-04-13T18:54:00.175Z,14.59
2023-04-13T18:56:29.839Z,14.08
2023-04-13T18:58:56.354Z,12.93
2023-04-13T19:01:25.560Z,12.04
2023-04-13T19:03:52.980Z,11.77
2023-04-13T19:06:20.249Z,12.79
2023-04-13T19:08:46.768Z,14.01
2023-04-13T19:11:15.449Z,14.20
2023-04-13T19:13:43.551Z,13.31
2023-04-13T19:16:13.994Z,12.34
2023-04-13T19:18:40.547Z,11.93
2023-04-13T19:21:07.565Z,13.01
2023-04-13T19:23:34.657Z,14.07
2023-04-13T19:26:02.983Z,14.53
2023-04-13T19:28:30.436Z,13.58
2023-04-13T19:30:58.044Z,12.39
2023-04-13T19:33:24.537Z,12.55
2023-04-13T19:35:52.933Z,13.68
2023-04-13T19:38:19.869Z,14.58
2023-04-13T19:40:46.557Z,14.53
2023-04-13T19:43:19.855Z,12.93
2023-04-13T19:45:48.791Z,13.04
2023-04-13T19:48:16.019Z,14.12
2023-04-13T19:50:47.361Z,14.86
2023-04-13T19:53:14.171Z,14.84
2023-04-13T19:55:42.461Z,13.53
2023-04-13T19:58:12.044Z,12.39
2023-04-13T20:00:38.713Z,12.13
2023-04-13T20:03:06.211Z,13.05
2023-04-13T20:05:33.312Z,13.84
2023-04-13T20:08:00.354Z,13.11
2023-04-13T20:10:28.779Z,11.98
2023-04-13T20:12:57.298Z,11.42
2023-04-13T20:15:23.978Z,11.97
2023-04-13T20:17:51.982Z,12.93
2023-04-13T20:20:21.848Z,13.34
2023-04-13T20:22:50.625Z,12.42
2023-04-13T20:25:18.975Z,11.54
2023-04-13T20:27:49.827Z,12.51
2023-04-13T20:30:17.262Z,13.12
2023-04-13T20:32:45.093Z,12.66
2023-04-13T20:35:14.439Z,11.47
2023-04-13T20:37:41.580Z,11.54
2023-04-13T20:40:11.398Z,12.72
2023-04-13T20:42:41.480Z,13.57
2023-04-13T20:45:10.373Z,13.62
2023-04-13T20:47:36.940Z,12.73
2023-04-13T20:50:05.297Z,11.58
2023-04-13T20:52:32.260Z,10.79
2023-04-13T20:54:59.800Z,10.54
2023-04-13T20:57:26.903Z,11.75
2023-04-13T20:59:53.927Z,13.03
2023-04-13T21:02:21.191Z,13.98
2023-04-13T21:04:50.433Z,14.19
2023-04-13T21:07:17.477Z,13.13
2023-04-13T21:09:44.134Z,12.08
2023-04-13T21:12:13.630Z,11.30
2023-04-13T21:14:40.830Z,10.65
2023-04-13T21:17:08.736Z,10.49
2023-04-13T21:19:37.629Z,11.71
2023-04-13T21:22:07.826Z,12.88
2023-04-13T21:24:35.953Z,13.31
2023-04-13T21:27:02.424Z,12.32
2023-04-13T21:29:28.964Z,11.27
2023-04-13T21:31:56.470Z,10.45
2023-04-13T21:34:26.440Z,10.26
2023-04-13T21:36:54.553Z,11.53
2023-04-13T21:39:21.826Z,12.74
2023-04-13T21:41:48.271Z,13.56
2023-04-13T21:44:28.779Z,13.77
2023-04-13T21:46:57.819Z,12.68
2023-04-13T21:49:24.835Z,11.66
2023-04-13T21:51:52.916Z,10.83
2023-04-13T21:54:19.611Z,10.18
2023-04-13T21:56:50.751Z,10.06
2023-04-13T21:59:17.424Z,11.28
2023-04-13T22:01:46.131Z,12.47
2023-04-13T22:04:15.065Z,13.34
2023-04-13T22:06:42.598Z,13.48
2023-04-13T22:09:09.059Z,12.33
2023-04-13T22:11:35.844Z,11.19
2023-04-13T22:14:03.357Z,10.29
2023-04-13T22:16:30.637Z,10.04
2023-04-13T22:18:58.649Z,11.09
2023-04-13T22:21:26.155Z,11.97
2023-04-13T22:23:52.583Z,12.68
2023-04-13T22:26:19.449Z,12.64
2023-04-13T22:28:46.988Z,11.52
2023-04-13T22:31:13.540Z,10.34
2023-04-13T22:33:40.309Z,9.90
2023-04-13T22:36:20.530Z,10.94
2023-04-13T22:38:49.111Z,11.91
2023-04-13T22:41:16.993Z,12.65
2023-04-13T22:43:44.369Z,13.35
2023-04-13T22:46:10.935Z,13.62
2023-04-13T22:48:39.975Z,12.59
2023-04-13T22:51:07.980Z,11.43
2023-04-13T22:53:37.389Z,10.53
2023-04-13T22:56:04.933Z,10.19
2023-04-13T22:58:31.433Z,11.38
2023-04-13T23:00:59.794Z,12.52
2023-04-13T23:03:26.798Z,13.25
2023-04-13T23:05:53.484Z,13.23
2023-04-13T23:08:20.347Z,11.87
2023-04-13T23:10:49.749Z,10.71
2023-04-13T23:13:18.587Z,9.90
2023-04-13T23:15:46.215Z,9.32
2023-04-13T23:18:12.764Z,9.26
2023-04-13T23:20:39.332Z,10.70
2023-04-13T23:23:07.902Z,12.11
2023-04-13T23:25:34.519Z,13.08
2023-04-13T23:28:02.230Z,13.36
2023-04-13T23:30:28.800Z,12.35
2023-04-13T23:32:55.190Z,11.30
2023-04-13T23:35:21.868Z,10.52
2023-04-13T23:37:48.729Z,10.11
2023-04-13T23:40:15.727Z,11.22
2023-04-13T23:42:42.433Z,12.38
2023-04-13T23:45:10.786Z,13.01
2023-04-13T23:47:37.293Z,13.00
2023-04-13T23:50:04.558Z,11.86
2023-04-13T23:52:31.167Z,10.64
2023-04-13T23:54:58.985Z,9.73
2023-04-13T23:57:25.511Z,9.05
2023-04-13T23:59:56.861Z,9.00
